Time;durP1;ratioP1;P1;durP2;ratioP2;P2;SDS_P1;SDS_P2;PMS_P1;PMS_P2;Temp;Humidity;BMP_temperature;BMP_pressure;BME280_temperature;BME280_humidity;BME280_pressure;Samples;Min_cycle;Max_cycle;Signal;HPM_P1;HPM_P2
2022/08/15 00:01:23;;;;;;;8.40;6.50;;;;;;;;;;5073566;28;19963;-75
2022/08/15 00:03:52;;;;;;;8.10;6.65;;;;;;;;;;5073508;28;20469;-75
2022/08/15 00:06:24;;;;;;;9.68;6.68;;;;;;;;;;5073274;28;20032;-75
2022/08/15 00:08:54;;;;;;;10.57;7.15;;;;;;;;;;5055568;28;20032;-76
2022/08/15 00:11:32;;;;;;;10.23;6.88;;;;;;;;;;5073905;28;20424;-75
2022/08/15 00:14:05;;;;;;;9.88;7.38;;;;;;;;;;5073520;28;20032;-74
2022/08/15 00:16:33;;;;;;;9.88;6.53;;;;;;;;;;5073194;28;20123;-75
2022/08/15 00:18:59;;;;;;;10.73;7.03;;;;;;;;;;5073220;28;20397;-76
2022/08/15 00:21:25;;;;;;;8.70;6.82;;;;;;;;;;5055165;28;20086;-75
2022/08/15 00:23:51;;;;;;;12.82;7.20;;;;;;;;;;5055199;28;20487;-75
2022/08/15 00:26:17;;;;;;;11.82;6.90;;;;;;;;;;5073183;28;20024;-75
2022/08/15 00:28:42;;;;;;;8.98;7.03;;;;;;;;;;5073564;28;20020;-75
2022/08/15 00:31:10;;;;;;;8.90;6.57;;;;;;;;;;5073342;28;20101;-75
2022/08/15 00:33:36;;;;;;;9.88;7.00;;;;;;;;;;5072942;28;20035;-75
2022/08/15 00:36:02;;;;;;;9.40;6.80;;;;;;;;;;5073479;28;20107;-75
2022/08/15 00:38:29;;;;;;;9.02;6.60;;;;;;;;;;5073281;28;20393;-75
2022/08/15 00:43:51;;;;;;;8.50;7.03;;;;;;;;;;5073050;28;20182;-74
2022/08/15 00:46:18;;;;;;;11.38;7.03;;;;;;;;;;5073277;28;20412;-76
2022/08/15 00:48:46;;;;;;;9.43;6.95;;;;;;;;;;5072758;28;20106;-75
2022/08/15 00:51:28;;;;;;;10.27;7.13;;;;;;;;;;5072931;28;20013;-78
2022/08/15 00:53:58;;;;;;;8.30;6.57;;;;;;;;;;5073024;28;20167;-76
2022/08/15 00:56:28;;;;;;;12.45;7.57;;;;;;;;;;5075396;28;20024;-75
2022/08/15 00:58:54;;;;;;;10.55;7.53;;;;;;;;;;5077294;28;20036;-76
2022/08/15 01:01:21;;;;;;;9.20;6.82;;;;;;;;;;5076868;28;20025;-75
2022/08/15 01:03:47;;;;;;;10.80;7.25;;;;;;;;;;5058834;28;20029;-76
2022/08/15 01:06:14;;;;;;;9.88;7.30;;;;;;;;;;5076875;28;20078;-76
2022/08/15 01:08:43;;;;;;;11.63;7.25;;;;;;;;;;5076808;28;20035;-75
2022/08/15 01:11:26;;;;;;;12.00;7.13;;;;;;;;;;5076794;28;20017;-76
2022/08/15 01:13:55;;;;;;;8.30;6.80;;;;;;;;;;5077166;28;20031;-76
2022/08/15 01:16:23;;;;;;;10.57;7.53;;;;;;;;;;5058687;28;20082;-75
2022/08/15 01:18:50;;;;;;;11.38;7.55;;;;;;;;;;5076654;28;20028;-76
2022/08/15 01:21:28;;;;;;;9.93;7.88;;;;;;;;;;5076977;28;20028;-75
2022/08/15 01:24:06;;;;;;;11.88;7.32;;;;;;;;;;5076822;28;20409;-77
2022/08/15 01:26:32;;;;;;;11.15;6.97;;;;;;;;;;5076698;28;20120;-75
2022/08/15 01:28:58;;;;;;;10.02;7.63;;;;;;;;;;5076479;28;20021;-76
2022/08/15 01:31:25;;;;;;;10.48;7.80;;;;;;;;;;5058949;28;20380;-75
2022/08/15 01:33:54;;;;;;;10.35;7.60;;;;;;;;;;5076484;28;20397;-75
2022/08/15 01:36:21;;;;;;;8.88;7.60;;;;;;;;;;5078717;28;20035;-74
2022/08/15 01:38:56;;;;;;;20.30;7.80;;;;;;;;;;5079115;28;20021;-75
2022/08/15 01:41:30;;;;;;;9.65;7.70;;;;;;;;;;5078904;28;20028;-75
2022/08/15 01:44:20;;;;;;;11.60;8.13;;;;;;;;;;5079525;28;20029;-75
2022/08/15 01:47:15;;;;;;;9.02;7.50;;;;;;;;;;5078300;28;20036;-75
2022/08/15 01:50:13;;;;;;;11.13;7.55;;;;;;;;;;5067158;28;20631;-75
2022/08/15 01:52:49;;;;;;;12.52;8.15;;;;;;;;;;5060601;28;20036;-74
2022/08/15 01:55:15;;;;;;;12.05;7.55;;;;;;;;;;5079282;28;20508;-74
2022/08/15 01:57:40;;;;;;;12.43;7.57;;;;;;;;;;5079364;28;20385;-73
2022/08/15 02:00:08;;;;;;;12.02;7.90;;;;;;;;;;5079550;28;20032;-74
2022/08/15 02:02:34;;;;;;;13.15;8.10;;;;;;;;;;5061048;28;20029;-75
2022/08/15 02:05:00;;;;;;;8.70;7.63;;;;;;;;;;5077101;28;20135;-75
2022/08/15 02:07:28;;;;;;;11.00;7.70;;;;;;;;;;5075484;28;20034;-75
2022/08/15 02:09:54;;;;;;;10.15;7.20;;;;;;;;;;5057732;28;20021;-75
2022/08/15 02:12:25;;;;;;;8.65;7.50;;;;;;;;;;5076071;28;20043;-74
2022/08/15 02:14:51;;;;;;;11.10;7.63;;;;;;;;;;5075557;28;20112;-75
2022/08/15 02:17:16;;;;;;;10.48;7.68;;;;;;;;;;5057552;28;20119;-74
2022/08/15 02:19:44;;;;;;;10.85;7.45;;;;;;;;;;5075468;28;20074;-74
2022/08/15 02:22:09;;;;;;;11.60;8.20;;;;;;;;;;5075376;28;20485;-73
2022/08/15 02:24:35;;;;;;;13.38;7.80;;;;;;;;;;5075386;28;20037;-75
2022/08/15 02:27:02;;;;;;;13.82;7.68;;;;;;;;;;5057199;28;20024;-75
2022/08/15 02:29:28;;;;;;;8.95;7.53;;;;;;;;;;5057790;28;20024;-75
2022/08/15 02:31:59;;;;;;;10.35;7.65;;;;;;;;;;5075297;28;20051;-75
2022/08/15 02:34:25;;;;;;;10.32;7.55;;;;;;;;;;5057180;28;20024;-74
2022/08/15 02:36:50;;;;;;;10.10;7.90;;;;;;;;;;5075215;28;20107;-75
2022/08/15 02:39:16;;;;;;;9.85;7.75;;;;;;;;;;5075100;28;20078;-73
2022/08/15 02:41:48;;;;;;;13.73;8.05;;;;;;;;;;5074966;28;20390;-75
2022/08/15 02:44:15;;;;;;;11.32;7.90;;;;;;;;;;5075340;28;20025;-75
2022/08/15 02:46:41;;;;;;;9.85;7.78;;;;;;;;;;5057020;28;20493;-74
2022/08/15 02:49:10;;;;;;;10.10;7.70;;;;;;;;;;5074805;28;20108;-75
2022/08/15 02:51:37;;;;;;;10.45;7.93;;;;;;;;;;5074864;28;20257;-75
2022/08/15 02:54:02;;;;;;;10.18;7.60;;;;;;;;;;5074880;28;20436;-75
2022/08/15 02:56:28;;;;;;;13.45;8.55;;;;;;;;;;5074755;28;20080;-74
2022/08/15 02:58:53;;;;;;;11.35;7.90;;;;;;;;;;5074652;28;20048;-75
2022/08/15 03:01:20;;;;;;;12.73;8.60;;;;;;;;;;5056706;28;20509;-75
2022/08/15 03:03:48;;;;;;;10.60;8.25;;;;;;;;;;5056589;28;20025;-75
2022/08/15 03:06:17;;;;;;;10.57;7.82;;;;;;;;;;5074482;28;20234;-74
2022/08/15 03:08:43;;;;;;;13.07;7.85;;;;;;;;;;5074487;28;20031;-75
2022/08/15 03:11:09;;;;;;;14.38;8.32;;;;;;;;;;5074916;28;20386;-75
2022/08/15 03:13:35;;;;;;;10.23;8.25;;;;;;;;;;5056586;28;20032;-74
2022/08/15 03:16:01;;;;;;;10.57;8.27;;;;;;;;;;5056413;28;20059;-74
2022/08/15 03:18:30;;;;;;;12.95;8.38;;;;;;;;;;5073545;28;20071;-75
2022/08/15 03:20:56;;;;;;;14.00;8.07;;;;;;;;;;5074506;28;20020;-74
2022/08/15 03:23:25;;;;;;;12.07;8.32;;;;;;;;;;5056449;28;20032;-74
2022/08/15 03:25:53;;;;;;;13.57;8.43;;;;;;;;;;5056275;28;20032;-73
2022/08/15 03:28:22;;;;;;;9.88;8.05;;;;;;;;;;5074504;28;20024;-74
2022/08/15 03:30:48;;;;;;;12.02;7.80;;;;;;;;;;5074170;28;20025;-74
2022/08/15 03:33:14;;;;;;;10.50;8.15;;;;;;;;;;5074209;28;20052;-75
2022/08/15 03:35:43;;;;;;;14.07;8.50;;;;;;;;;;5056175;28;20017;-75
2022/08/15 03:38:09;;;;;;;11.82;8.18;;;;;;;;;;5073948;28;20055;-74
2022/08/15 03:40:36;;;;;;;10.63;8.18;;;;;;;;;;5073829;28;20020;-74
2022/08/15 03:43:08;;;;;;;10.73;8.05;;;;;;;;;;5074093;28;20032;-75
2022/08/15 03:45:34;;;;;;;10.45;8.50;;;;;;;;;;5073694;28;20028;-74
2022/08/15 03:48:01;;;;;;;10.57;8.48;;;;;;;;;;5074099;28;20488;-75
2022/08/15 03:50:28;;;;;;;12.57;8.27;;;;;;;;;;5074250;28;20024;-75
2022/08/15 03:52:59;;;;;;;14.50;8.52;;;;;;;;;;5073873;28;20025;-75
2022/08/15 03:55:27;;;;;;;9.70;8.10;;;;;;;;;;5074454;28;20107;-75
2022/08/15 03:57:53;;;;;;;11.90;8.57;;;;;;;;;;5073725;28;20035;-75
2022/08/15 04:00:24;;;;;;;12.57;8.00;;;;;;;;;;5073559;28;20119;-75
2022/08/15 04:02:50;;;;;;;11.18;8.27;;;;;;;;;;5074060;28;20485;-75
2022/08/15 04:05:16;;;;;;;10.52;8.00;;;;;;;;;;5073699;28;20033;-75
2022/08/15 04:07:41;;;;;;;12.38;8.55;;;;;;;;;;5055864;28;20111;-75
2022/08/15 04:10:13;;;;;;;14.23;8.23;;;;;;;;;;5073403;28;20440;-74
2022/08/15 04:12:40;;;;;;;11.23;8.77;;;;;;;;;;5073371;28;20029;-74
2022/08/15 04:15:10;;;;;;;11.43;8.27;;;;;;;;;;5055404;28;20029;-74
2022/08/15 04:17:35;;;;;;;12.80;8.38;;;;;;;;;;5073370;28;20025;-75
2022/08/15 04:20:00;;;;;;;9.57;8.50;;;;;;;;;;5055483;28;20020;-75
2022/08/15 04:22:34;;;;;;;13.02;8.15;;;;;;;;;;5073348;28;20269;-74
2022/08/15 04:25:01;;;;;;;9.80;8.48;;;;;;;;;;5073366;28;20157;-74
2022/08/15 04:27:27;;;;;;;10.65;8.23;;;;;;;;;;5073146;28;20108;-75
2022/08/15 04:29:52;;;;;;;9.95;8.00;;;;;;;;;;5072976;28;20107;-74
2022/08/15 04:32:21;;;;;;;13.38;8.70;;;;;;;;;;5073171;28;20016;-74
2022/08/15 04:34:46;;;;;;;10.50;8.80;;;;;;;;;;5073048;28;20156;-75
2022/08/15 04:37:12;;;;;;;13.73;9.60;;;;;;;;;;5055114;28;20070;-76
2022/08/15 04:39:38;;;;;;;15.40;10.70;;;;;;;;;;5073052;28;20284;-74
2022/08/15 04:42:03;;;;;;;14.52;9.25;;;;;;;;;;5073228;28;20099;-74
2022/08/15 04:44:29;;;;;;;15.73;9.60;;;;;;;;;;5054919;28;20021;-75
2022/08/15 04:46:54;;;;;;;16.55;9.98;;;;;;;;;;5073348;28;20020;-74
2022/08/15 04:49:19;;;;;;;13.00;9.68;;;;;;;;;;5072944;28;20016;-75
2022/08/15 04:51:45;;;;;;;18.05;9.80;;;;;;;;;;5072988;28;20048;-75
2022/08/15 04:54:10;;;;;;;11.37;8.30;;;;;;;;;;5055127;28;20025;-75
2022/08/15 04:56:36;;;;;;;12.65;8.80;;;;;;;;;;5054790;28;20257;-75
2022/08/15 04:59:02;;;;;;;16.17;8.93;;;;;;;;;;5072812;28;20490;-73
2022/08/15 05:01:27;;;;;;;10.75;8.57;;;;;;;;;;5072797;28;20277;-75
2022/08/15 05:03:52;;;;;;;10.70;8.90;;;;;;;;;;5072743;28;20051;-73
2022/08/15 05:06:18;;;;;;;12.33;8.97;;;;;;;;;;5072849;28;20336;-74
2022/08/15 05:08:44;;;;;;;13.27;8.68;;;;;;;;;;5073058;28;20281;-74
2022/08/15 05:11:14;;;;;;;11.93;8.80;;;;;;;;;;5072751;28;20024;-75
2022/08/15 05:13:41;;;;;;;15.30;9.07;;;;;;;;;;5073004;28;20150;-75
2022/08/15 05:16:08;;;;;;;13.05;8.90;;;;;;;;;;5072934;28;20052;-74
2022/08/15 05:18:36;;;;;;;11.50;8.25;;;;;;;;;;5072822;28;20055;-74
2022/08/15 05:21:01;;;;;;;12.68;8.77;;;;;;;;;;5072448;28;20031;-74
2022/08/15 05:23:27;;;;;;;13.88;8.50;;;;;;;;;;5072527;28;20020;-75
2022/08/15 05:25:56;;;;;;;12.68;8.18;;;;;;;;;;5072575;28;20020;-74
2022/08/15 05:28:22;;;;;;;11.13;8.52;;;;;;;;;;5072511;28;20025;-75
2022/08/15 05:30:49;;;;;;;13.98;8.40;;;;;;;;;;5072591;28;20385;-75
2022/08/15 05:33:18;;;;;;;12.25;8.43;;;;;;;;;;5072481;28;20032;-74
2022/08/15 05:35:46;;;;;;;13.35;8.18;;;;;;;;;;5072791;28;20492;-74
2022/08/15 05:38:21;;;;;;;12.75;7.95;;;;;;;;;;5072629;28;20028;-75
2022/08/15 05:41:32;;;;;;;16.05;7.32;;;;;;;;;;5072695;28;20033;-73
2022/08/15 05:44:32;;;;;;;13.52;8.18;;;;;;;;;;5027686;28;20037;-74
2022/08/15 05:47:06;;;;;;;13.93;7.90;;;;;;;;;;5058568;28;20500;-74
2022/08/15 05:49:57;;;;;;;12.40;8.32;;;;;;;;;;5058314;28;20513;-74
2022/08/15 05:52:37;;;;;;;12.70;8.18;;;;;;;;;;5076542;28;20098;-74
2022/08/15 05:55:19;;;;;;;8.85;7.43;;;;;;;;;;5062748;28;20020;-74
2022/08/15 05:58:08;;;;;;;12.80;8.32;;;;;;;;;;5078028;28;20028;-76
2022/08/15 06:00:34;;;;;;;11.68;8.40;;;;;;;;;;5058349;28;20036;-75
2022/08/15 06:03:14;;;;;;;10.10;7.68;;;;;;;;;;5076643;28;20496;-75
2022/08/15 06:05:44;;;;;;;14.50;8.20;;;;;;;;;;5075722;28;20104;-74
2022/08/15 06:08:15;;;;;;;13.50;8.18;;;;;;;;;;5075431;28;20109;-76
2022/08/15 06:10:49;;;;;;;10.30;7.60;;;;;;;;;;5075555;28;20576;-75
2022/08/15 06:13:23;;;;;;;10.75;7.78;;;;;;;;;;5075519;28;20397;-75
2022/08/15 06:15:59;;;;;;;9.65;8.02;;;;;;;;;;5075499;28;20020;-75
2022/08/15 06:18:28;;;;;;;11.68;8.70;;;;;;;;;;5075805;28;20524;-76
2022/08/15 06:21:19;;;;;;;9.27;7.43;;;;;;;;;;5075183;28;20028;-75
2022/08/15 06:24:06;;;;;;;15.90;8.52;;;;;;;;;;5057363;28;20576;-74
2022/08/15 06:26:51;;;;;;;15.95;7.60;;;;;;;;;;5075362;28;20500;-75
2022/08/15 06:29:56;;;;;;;11.10;8.25;;;;;;;;;;5075898;28;20060;-75
2022/08/15 06:32:39;;;;;;;11.63;8.32;;;;;;;;;;5075679;28;20112;-76
2022/08/15 06:35:15;;;;;;;16.45;7.75;;;;;;;;;;5079597;28;20028;-76
2022/08/15 06:37:57;;;;;;;11.18;7.18;;;;;;;;;;5078031;28;20037;-75
2022/08/15 06:40:41;;;;;;;10.07;7.50;;;;;;;;;;5081161;28;20044;-76
2022/08/15 06:43:07;;;;;;;;;;;;;;;;;;5077511;28;20078;-74
2022/08/15 06:45:44;;;;;;;10.93;7.05;;;;;;;;;;5077786;28;19908;-75
2022/08/15 06:48:18;;;;;;;13.80;7.68;;;;;;;;;;5077769;28;20120;-76
2022/08/15 06:50:47;;;;;;;;;;;;;;;;;;5077438;28;20048;-75
2022/08/15 06:53:33;;;;;;;16.83;7.45;;;;;;;;;;5075623;28;19908;-75
2022/08/15 06:56:24;;;;;;;8.07;6.68;;;;;;;;;;5074682;28;20505;-76
2022/08/15 06:58:59;;;;;;;9.45;7.05;;;;;;;;;;5073753;28;20040;-75
2022/08/15 07:02:01;;;;;;;15.27;7.05;;;;;;;;;;5056740;28;20028;-75
2022/08/15 07:04:42;;;;;;;14.57;6.68;;;;;;;;;;5075207;28;20086;-76
2022/08/15 07:07:14;;;;;;;9.80;5.93;;;;;;;;;;5075063;28;20028;-75
2022/08/15 07:09:53;;;;;;;10.15;6.32;;;;;;;;;;5074481;28;20020;-75
2022/08/15 07:12:31;;;;;;;11.15;6.28;;;;;;;;;;5074779;28;20016;-75
2022/08/15 07:15:21;;;;;;;12.23;6.55;;;;;;;;;;5074823;28;20098;-75
2022/08/15 07:17:50;;;;;;;9.80;6.28;;;;;;;;;;5074629;28;20027;-76
2022/08/15 07:20:17;;;;;;;7.03;5.50;;;;;;;;;;5074251;28;20025;-75
2022/08/15 07:22:43;;;;;;;7.25;5.78;;;;;;;;;;5074077;28;20370;-75
2022/08/15 07:25:16;;;;;;;10.80;5.65;;;;;;;;;;5074738;28;20108;-76
2022/08/15 07:27:41;;;;;;;12.32;6.55;;;;;;;;;;5074158;28;20038;-76
2022/08/15 07:30:20;;;;;;;7.88;5.55;;;;;;;;;;5056130;28;20111;-75
2022/08/15 07:32:53;;;;;;;11.60;6.00;;;;;;;;;;5055698;28;20020;-75
2022/08/15 07:35:33;;;;;;;10.38;6.47;;;;;;;;;;5056343;28;20025;-75
2022/08/15 07:38:01;;;;;;;8.77;6.40;;;;;;;;;;5073956;28;20063;-75
2022/08/15 07:40:34;;;;;;;8.50;6.22;;;;;;;;;;5073670;28;20464;-74
2022/08/15 07:43:01;;;;;;;17.98;6.70;;;;;;;;;;5073771;28;20029;-76
2022/08/15 07:45:36;;;;;;;14.95;6.35;;;;;;;;;;5055769;28;20039;-75
2022/08/15 07:48:11;;;;;;;8.27;6.20;;;;;;;;;;5055517;28;20051;-74
2022/08/15 07:50:42;;;;;;;7.90;6.30;;;;;;;;;;5073335;28;20024;-75
2022/08/15 07:53:22;;;;;;;13.75;7.22;;;;;;;;;;5073737;28;20039;-75
2022/08/15 07:56:05;;;;;;;8.80;6.50;;;;;;;;;;5073663;28;20099;-76
2022/08/15 07:58:33;;;;;;;8.02;6.28;;;;;;;;;;5055449;28;20040;-75
2022/08/15 08:01:20;;;;;;;8.77;6.22;;;;;;;;;;5073747;28;20033;-75
2022/08/15 08:03:50;;;;;;;8.55;6.35;;;;;;;;;;5073805;28;20107;-76
2022/08/15 08:06:18;;;;;;;14.10;6.80;;;;;;;;;;5055260;28;20581;-75
2022/08/15 08:08:57;;;;;;;7.88;6.15;;;;;;;;;;5073474;28;20126;-75
2022/08/15 08:11:28;;;;;;;9.15;6.13;;;;;;;;;;5073422;28;20031;-76
2022/08/15 08:14:02;;;;;;;7.20;6.13;;;;;;;;;;5073420;28;20496;-76
2022/08/15 08:16:36;;;;;;;10.63;6.72;;;;;;;;;;5073329;28;20028;-75
2022/08/15 08:19:14;;;;;;;10.38;6.53;;;;;;;;;;5073440;28;20500;-75
2022/08/15 08:21:45;;;;;;;8.30;6.10;;;;;;;;;;5073526;28;20440;-76
2022/08/15 08:24:17;;;;;;;12.50;6.13;;;;;;;;;;5073113;28;20481;-75
2022/08/15 08:26:59;;;;;;;8.40;6.50;;;;;;;;;;5072932;28;20540;-74
2022/08/15 08:29:34;;;;;;;8.65;5.47;;;;;;;;;;5072973;28;20025;-76
2022/08/15 08:32:27;;;;;;;10.32;6.30;;;;;;;;;;5073077;28;20438;-75
2022/08/15 08:35:09;;;;;;;9.38;6.28;;;;;;;;;;5073224;28;20066;-77
2022/08/15 08:37:57;;;;;;;12.85;6.20;;;;;;;;;;5073284;28;20016;-76
2022/08/15 08:43:50;;;;;;;10.38;6.20;;;;;;;;;;5073371;28;20393;-75
2022/08/15 08:46:31;;;;;;;8.55;5.32;;;;;;;;;;5073143;28;20020;-75
2022/08/15 08:49:12;;;;;;;8.88;5.47;;;;;;;;;;5073202;28;20470;-75
2022/08/15 08:52:18;;;;;;;10.65;5.60;;;;;;;;;;5073458;28;20025;-76
2022/08/15 08:55:10;;;;;;;7.80;6.20;;;;;;;;;;5035929;28;20043;-75
2022/08/15 08:57:43;;;;;;;7.78;5.68;;;;;;;;;;5073039;28;20112;-76
2022/08/15 09:00:30;;;;;;;9.18;5.60;;;;;;;;;;5073170;28;20016;-76
2022/08/15 09:03:02;;;;;;;7.75;6.10;;;;;;;;;;5072726;28;20115;-75
2022/08/15 09:05:38;;;;;;;10.65;6.30;;;;;;;;;;5074198;28;20031;-76
2022/08/15 09:08:12;;;;;;;8.75;6.18;;;;;;;;;;5073958;28;20477;-75
2022/08/15 09:10:39;;;;;;;10.02;5.85;;;;;;;;;;5054976;28;20123;-77
2022/08/15 09:15:55;;;;;;;7.90;5.20;;;;;;;;;;5075377;28;20032;-75
2022/08/15 09:18:33;;;;;;;10.13;5.05;;;;;;;;;;5077365;28;20029;-77
2022/08/15 09:20:59;;;;;;;7.10;5.57;;;;;;;;;;5058778;28;20029;-75
2022/08/15 09:23:30;;;;;;;7.65;5.50;;;;;;;;;;5076883;28;20034;-75
2022/08/15 09:26:02;;;;;;;8.27;5.60;;;;;;;;;;5058786;28;20119;-76
2022/08/15 09:28:34;;;;;;;8.38;5.38;;;;;;;;;;5077172;28;20043;-77
2022/08/15 09:31:08;;;;;;;10.80;5.53;;;;;;;;;;5076986;28;20046;-75
2022/08/15 09:33:37;;;;;;;5.78;5.10;;;;;;;;;;5076915;28;20115;-77
2022/08/15 09:36:26;;;;;;;7.00;5.03;;;;;;;;;;5077275;28;20036;-76
2022/08/15 09:39:17;;;;;;;10.38;5.32;;;;;;;;;;5077075;28;20028;-76
2022/08/15 09:41:53;;;;;;;9.77;5.60;;;;;;;;;;5076429;28;20024;-76
2022/08/15 09:44:51;;;;;;;7.97;5.35;;;;;;;;;;5058736;28;20020;-75
2022/08/15 09:47:22;;;;;;;5.72;5.13;;;;;;;;;;5059173;28;20377;-76
2022/08/15 09:50:20;;;;;;;7.50;5.07;;;;;;;;;;5058297;28;20026;-75
2022/08/15 09:53:02;;;;;;;7.85;5.43;;;;;;;;;;5076317;28;20090;-76
2022/08/15 09:55:44;;;;;;;10.85;5.90;;;;;;;;;;5076320;28;20031;-76
2022/08/15 09:58:20;;;;;;;10.18;5.10;;;;;;;;;;5076032;28;20028;-77
2022/08/15 10:01:26;;;;;;;6.18;4.85;;;;;;;;;;5075982;28;20482;-76
2022/08/15 10:03:56;;;;;;;9.38;5.70;;;;;;;;;;5076144;28;20039;-77
2022/08/15 10:06:54;;;;;;;10.68;5.78;;;;;;;;;;5076229;28;20389;-76
2022/08/15 10:09:29;;;;;;;6.40;5.63;;;;;;;;;;5050640;28;20379;-76
2022/08/15 10:12:06;;;;;;;10.48;5.60;;;;;;;;;;5075913;28;20021;-76
2022/08/15 10:14:53;;;;;;;10.10;5.70;;;;;;;;;;5075726;28;20082;-76
2022/08/15 10:17:34;;;;;;;8.15;4.78;;;;;;;;;;5075654;28;20102;-76
2022/08/15 10:20:15;;;;;;;8.45;5.20;;;;;;;;;;5075861;28;20012;-75
2022/08/15 10:22:50;;;;;;;10.75;5.43;;;;;;;;;;5075459;28;20027;-76
2022/08/15 10:25:25;;;;;;;6.75;5.10;;;;;;;;;;5075556;28;20017;-76
2022/08/15 10:27:58;;;;;;;7.47;4.93;;;;;;;;;;5057683;28;20107;-75
2022/08/15 10:30:26;;;;;;;;;;;;;;;;;;5075610;28;20020;-76
2022/08/15 10:32:53;;;;;;;7.35;4.75;;;;;;;;;;5075386;28;20301;-76
2022/08/15 10:35:36;;;;;;;10.10;5.60;;;;;;;;;;5075355;28;20059;-76
2022/08/15 10:38:07;;;;;;;10.18;5.78;;;;;;;;;;5075232;28;20025;-77
2022/08/15 10:40:44;;;;;;;7.10;4.82;;;;;;;;;;5075208;28;20032;-75
2022/08/15 10:43:40;;;;;;;7.75;5.10;;;;;;;;;;5074952;28;20024;-76
2022/08/15 10:46:37;;;;;;;7.32;4.90;;;;;;;;;;5075215;28;20017;-76
2022/08/15 10:49:35;;;;;;;8.60;4.88;;;;;;;;;;5075300;28;20043;-76
2022/08/15 10:52:33;;;;;;;8.50;5.38;;;;;;;;;;5041238;28;20170;-76
2022/08/15 10:55:07;;;;;;;8.35;4.85;;;;;;;;;;5057011;28;20063;-75
2022/08/15 10:57:48;;;;;;;9.45;4.88;;;;;;;;;;5075043;28;20035;-75
2022/08/15 11:00:41;;;;;;;9.55;4.95;;;;;;;;;;5074901;28;20385;-76
2022/08/15 11:03:16;;;;;;;8.53;4.83;;;;;;;;;;5074308;28;20036;-76
2022/08/15 11:05:42;;;;;;;11.43;4.80;;;;;;;;;;5056602;28;20757;-74
2022/08/15 11:08:17;;;;;;;10.45;4.95;;;;;;;;;;5074534;28;20016;-75
2022/08/15 11:10:43;;;;;;;8.25;4.72;;;;;;;;;;5056546;28;20028;-75
2022/08/15 11:13:12;;;;;;;5.18;4.68;;;;;;;;;;5074583;28;20024;-75
2022/08/15 11:15:56;;;;;;;7.32;5.07;;;;;;;;;;5074482;28;20025;-75
2022/08/15 11:18:28;;;;;;;11.43;5.13;;;;;;;;;;5056277;28;20024;-76
2022/08/15 11:20:59;;;;;;;7.20;4.70;;;;;;;;;;5074509;28;20021;-75
2022/08/15 11:23:33;;;;;;;10.38;5.07;;;;;;;;;;5074366;28;20119;-76
2022/08/15 11:25:58;;;;;;;6.78;5.05;;;;;;;;;;5074666;28;20359;-76
2022/08/15 11:28:25;;;;;;;12.40;5.25;;;;;;;;;;5074507;28;20075;-76
2022/08/15 11:31:04;;;;;;;9.48;5.25;;;;;;;;;;5073971;28;20016;-75
2022/08/15 11:33:40;;;;;;;10.55;5.50;;;;;;;;;;5074188;28;20107;-75
2022/08/15 11:36:10;;;;;;;9.15;5.25;;;;;;;;;;5056125;28;20052;-75
2022/08/15 11:38:40;;;;;;;14.27;5.88;;;;;;;;;;5056388;28;20047;-75
2022/08/15 11:41:05;;;;;;;9.07;5.60;;;;;;;;;;5073961;28;20035;-75
2022/08/15 11:43:32;;;;;;;8.40;5.10;;;;;;;;;;5056518;28;20024;-76
2022/08/15 11:45:58;;;;;;;8.95;5.18;;;;;;;;;;5073722;28;20032;-75
2022/08/15 11:48:30;;;;;;;7.32;5.20;;;;;;;;;;5073800;28;20434;-75
2022/08/15 11:51:21;;;;;;;5.72;5.03;;;;;;;;;;5073647;28;20031;-75
2022/08/15 11:54:19;;;;;;;6.82;5.00;;;;;;;;;;5055871;28;20432;-76
2022/08/15 11:56:56;;;;;;;7.90;5.60;;;;;;;;;;5074067;28;20382;-76
2022/08/15 11:59:29;;;;;;;9.05;5.43;;;;;;;;;;5073691;28;20035;-76
2022/08/15 12:02:29;;;;;;;12.25;5.55;;;;;;;;;;5055918;28;20016;-76
2022/08/15 12:04:54;;;;;;;7.05;5.80;;;;;;;;;;5073461;28;20468;-76
2022/08/15 12:07:27;;;;;;;7.82;5.70;;;;;;;;;;5073661;28;20100;-75
2022/08/15 12:10:00;;;;;;;8.98;5.72;;;;;;;;;;5073339;28;20482;-75
2022/08/15 12:12:42;;;;;;;14.73;5.38;;;;;;;;;;5055466;28;20075;-75
2022/08/15 12:15:16;;;;;;;6.75;5.10;;;;;;;;;;5073726;28;20048;-76
2022/08/15 12:18:04;;;;;;;9.65;5.38;;;;;;;;;;5073715;28;20024;-74
2022/08/15 12:20:41;;;;;;;9.38;5.00;;;;;;;;;;5073593;28;20031;-75
2022/08/15 12:23:35;;;;;;;7.47;5.20;;;;;;;;;;5073111;28;20021;-76
2022/08/15 12:26:04;;;;;;;5.78;4.55;;;;;;;;;;5073556;28;20021;-76
2022/08/15 12:28:31;;;;;;;7.68;4.90;;;;;;;;;;5073157;28;20055;-76
2022/08/15 12:31:04;;;;;;;10.23;5.03;;;;;;;;;;5073121;28;20016;-75
2022/08/15 12:33:31;;;;;;;13.38;4.88;;;;;;;;;;5055161;28;20056;-75
2022/08/15 12:35:57;;;;;;;8.50;4.55;;;;;;;;;;5073067;28;20131;-76
2022/08/15 12:38:22;;;;;;;6.30;4.32;;;;;;;;;;5073076;28;20115;-75
2022/08/15 12:40:50;;;;;;;8.23;4.27;;;;;;;;;;5073242;28;20562;-75
2022/08/15 12:43:17;;;;;;;9.30;4.32;;;;;;;;;;5073020;28;20024;-77
2022/08/15 12:45:42;;;;;;;9.88;3.65;;;;;;;;;;5072929;28;20614;-75
2022/08/15 12:48:20;;;;;;;7.30;3.20;;;;;;;;;;5073241;28;20125;-76
2022/08/15 12:50:45;;;;;;;3.92;3.08;;;;;;;;;;5072421;28;20448;-76
2022/08/15 12:53:10;;;;;;;6.50;3.20;;;;;;;;;;5055074;28;20032;-76
2022/08/15 12:55:35;;;;;;;9.47;3.30;;;;;;;;;;5073191;28;20478;-75
2022/08/15 12:58:01;;;;;;;3.30;2.80;;;;;;;;;;5054875;28;20269;-75
2022/08/15 13:00:26;;;;;;;7.60;3.00;;;;;;;;;;5072974;28;20020;-76
2022/08/15 13:02:51;;;;;;;7.32;3.47;;;;;;;;;;5073254;28;20385;-77
2022/08/15 13:05:30;;;;;;;7.60;3.40;;;;;;;;;;5073135;28;20032;-75
2022/08/15 13:07:56;;;;;;;7.28;3.30;;;;;;;;;;5072929;28;20393;-75
2022/08/15 13:10:21;;;;;;;6.00;2.97;;;;;;;;;;5073053;28;20033;-75
2022/08/15 13:12:47;;;;;;;5.88;3.38;;;;;;;;;;5073129;28;20028;-76
2022/08/15 13:15:12;;;;;;;5.07;3.37;;;;;;;;;;5072992;28;20481;-75
2022/08/15 13:17:37;;;;;;;9.87;3.20;;;;;;;;;;5054476;28;20150;-75
2022/08/15 13:25:31;;;;;;;6.93;3.40;;;;;;;;;;5072902;28;20563;-76
2022/08/15 13:27:56;;;;;;;7.22;3.03;;;;;;;;;;5072812;28;20029;-76
2022/08/15 13:30:22;;;;;;;5.67;3.30;;;;;;;;;;5072962;28;20082;-75
2022/08/15 13:32:48;;;;;;;5.25;3.22;;;;;;;;;;5072461;28;20029;-76
2022/08/15 13:35:16;;;;;;;4.22;3.35;;;;;;;;;;5072683;28;20029;-75
2022/08/15 13:37:43;;;;;;;7.95;3.30;;;;;;;;;;5072547;28;20035;-75
2022/08/15 13:40:14;;;;;;;4.75;3.30;;;;;;;;;;5072759;28;20016;-76
2022/08/15 13:42:39;;;;;;;6.90;3.67;;;;;;;;;;5072659;28;20112;-75
2022/08/15 13:45:05;;;;;;;7.70;3.47;;;;;;;;;;5072342;28;20462;-75
2022/08/15 13:47:31;;;;;;;15.23;3.80;;;;;;;;;;5072490;28;20856;-75
2022/08/15 13:49:56;;;;;;;8.25;4.30;;;;;;;;;;5072937;28;20021;-75
2022/08/15 13:52:23;;;;;;;5.20;3.90;;;;;;;;;;5072535;28;20021;-75
2022/08/15 13:54:48;;;;;;;7.07;4.38;;;;;;;;;;5072440;28;20024;-76
2022/08/15 13:57:13;;;;;;;7.97;4.05;;;;;;;;;;5072394;28;20049;-76
2022/08/15 13:59:39;;;;;;;15.27;4.07;;;;;;;;;;5073157;28;20024;-77
2022/08/15 14:02:05;;;;;;;6.70;4.22;;;;;;;;;;5072824;28;20116;-76
2022/08/15 14:04:35;;;;;;;12.00;4.18;;;;;;;;;;5076210;28;20098;-77
2022/08/15 14:07:00;;;;;;;10.07;4.25;;;;;;;;;;5076176;28;20028;-76
2022/08/15 14:09:27;;;;;;;7.47;4.07;;;;;;;;;;5076733;28;20025;-75
2022/08/15 14:11:53;;;;;;;12.57;4.38;;;;;;;;;;5076348;28;20024;-75
2022/08/15 14:14:19;;;;;;;13.98;4.82;;;;;;;;;;5060855;28;20032;-78
2022/08/15 14:16:46;;;;;;;8.32;4.32;;;;;;;;;;5078800;28;20048;-75
2022/08/15 14:19:13;;;;;;;11.38;5.00;;;;;;;;;;5077072;28;20028;-75
2022/08/15 14:21:38;;;;;;;11.20;4.40;;;;;;;;;;5077152;28;20035;-75
2022/08/15 14:24:04;;;;;;;9.15;4.68;;;;;;;;;;5077689;28;20025;-75
2022/08/15 14:26:33;;;;;;;8.60;3.97;;;;;;;;;;5060940;28;20367;-74
2022/08/15 14:29:01;;;;;;;10.55;4.05;;;;;;;;;;5079087;28;20025;-74
2022/08/15 14:31:27;;;;;;;8.38;4.13;;;;;;;;;;5077597;28;20019;-76
2022/08/15 14:33:53;;;;;;;11.18;4.53;;;;;;;;;;5077930;28;20028;-76
2022/08/15 14:36:18;;;;;;;6.65;4.28;;;;;;;;;;5077725;28;20025;-75
2022/08/15 14:38:44;;;;;;;5.88;4.10;;;;;;;;;;5076510;28;20078;-76
2022/08/15 14:41:09;;;;;;;6.43;3.95;;;;;;;;;;5076856;28;20083;-75
2022/08/15 14:43:35;;;;;;;5.80;3.30;;;;;;;;;;5076656;28;20409;-72
2022/08/15 14:46:04;;;;;;;8.32;4.22;;;;;;;;;;5076782;28;20087;-75
2022/08/15 14:48:33;;;;;;;5.30;3.42;;;;;;;;;;5076460;28;20393;-77
2022/08/15 14:51:00;;;;;;;7.53;4.18;;;;;;;;;;5058060;28;20374;-78
2022/08/15 14:53:26;;;;;;;6.28;4.15;;;;;;;;;;5076100;28;20493;-79
2022/08/15 14:55:52;;;;;;;8.00;4.10;;;;;;;;;;5057812;28;20111;-77
2022/08/15 14:58:18;;;;;;;8.38;4.30;;;;;;;;;;5075313;28;20110;-78
2022/08/15 15:00:45;;;;;;;6.65;4.05;;;;;;;;;;5075867;28;20025;-76
2022/08/15 15:03:12;;;;;;;6.25;4.10;;;;;;;;;;5075336;28;20389;-76
2022/08/15 15:05:38;;;;;;;6.75;4.20;;;;;;;;;;5075239;28;20337;-75
2022/08/15 15:08:03;;;;;;;7.43;4.30;;;;;;;;;;5075028;28;20094;-76
2022/08/15 15:10:31;;;;;;;7.97;4.68;;;;;;;;;;5074703;28;20366;-75
2022/08/15 15:13:00;;;;;;;9.60;4.32;;;;;;;;;;5074724;28;20108;-76
2022/08/15 15:15:29;;;;;;;7.25;4.30;;;;;;;;;;5055512;28;20016;-77
2022/08/15 15:17:55;;;;;;;6.25;4.43;;;;;;;;;;5056607;28;20063;-76
2022/08/15 15:20:20;;;;;;;8.00;4.68;;;;;;;;;;5074979;28;20378;-76
2022/08/15 15:22:45;;;;;;;12.48;4.18;;;;;;;;;;5074605;28;20139;-77